Skinner Lake, Indiana
Current Conditions -  °F | °C
As of 8:15 AM on Friday 24 Oct 2014 (Local Time) from KGWB Reporting Station
Haze Haze  
Wind Chill: 39°   Ceiling: 8000
Heat Index: 39°   Visibility: 4mi
Dew Point: 37°   Wind: 0mph
Humidity: 93%   Direction: NA
Pressure: 30.08"   Gusts: NA
Location:  41.3469°N, 85.4059°W
Report Text: KGWB 241215Z AUTO 00000KT 4SM BR BKN080 04/03 A3008 RMK AO2
Loading
Personal Weather Stations






























Interactive Weather Map
Tropical Storm Tracking
New forecast layout! Learn more

10-Day Weather Forecast

Advertisements
Track Severe Weather on mobile